Forest City, IA

6:05 PM CDT on June 22, 2017 (GMT -0500)
Forest City Municipal | | Change Station

Elev 1230 ft 43.23 °N, 93.62 °W | Updated 10 minutes ago

Overcast
Overcast
75 °F
Feels Like 75 °F
N
4
Wind Variable Wind from NNE

Today
High -- | Low -- °F
--% Chance of Precip.
Yesterday
High -- | Low -- °F
Precip. -- in
Pressure 29.69 in
Visibility 10.0 miles
Clouds Overcast 6000 ft
Dew Point 63 °F
Humidity 65%
Rainfall 0.47 in
Snow Depth Not available.
5:34 AM 8:58 PM
Waning Crescent, 2% visible
METAR KFXY 222255Z AUTO 03003KT 10SM OVC060 24/17 A2969 RMK AO2
Pressure 29.69 in
Visibility 10.0 miles
Clouds Overcast 6000 ft
Dew Point 63 °F
Humidity 65%
Rainfall 0.47 in
Snow Depth Not available.
5:34 AM 8:58 PM
Waning Crescent, 2% visible
METAR KFXY 222255Z AUTO 03003KT 10SM OVC060 24/17 A2969 RMK AO2

Get Severe Weather Alerts

Thanks for signing up!

Be on the lookout for a verification email in your inbox.

You'll start receiving the daily forecast at 6 AM.

×

10-Day Weather Forecast

Almanac

Astronomy

Jun. 22, 2017 Rise Set
Actual Time
Civil Twilight
Nautical Twilight
Astronomical Twilight
Moon
Length of Visible Light
Length of Day
Tomorrow will be .
, % of the Moon is Illuminated

Today's Extremes

State Highs State Lows

Community

WunderPhotos

Category 6

Welcome to Category 6. This is the collective home for Weather Underground's featured writeups by Dr. Jeff Masters (right), Bob Henson (left), Chris Burt, and other regular contributors.

Nearby

Air Quality

  Air Quality AQ Index Pollutant
Not available.

Snow Depth

Station Depth Elevation

Earthquake Activity

City Distance Mag. Time & Date
Minimum magnitude displayed is 2.5.

Coastal Water Temperatures

Place Temperature

Stations

Nearby Weather Stations

Station Location Temp. Windchill Dew Point Humidity Wind Precip. Elev Updated Type
                   

Watches & Warnings

There are currently no watches in effect.